Time;durP1;ratioP1;P1;durP2;ratioP2;P2;SDS_P1;SDS_P2;PMS_P1;PMS_P2;Temp;Humidity;BMP_temperature;BMP_pressure;BME280_temperature;BME280_humidity;BME280_pressure;Samples;Min_cycle;Max_cycle;Signal;HPM_P1;HPM_P2
2023/01/03 00:01:13;;;;;;;16.88;5.07;;;6.80;99.90;;;;;;4202179;28;20217;-94
2023/01/03 00:03:16;;;;;;;19.30;5.22;;;6.80;99.90;;;;;;4202808;28;20226;-94
2023/01/03 00:05:17;;;;;;;19.52;5.28;;;6.70;99.90;;;;;;4185757;28;20167;-94
2023/01/03 00:07:32;;;;;;;16.25;4.72;;;6.70;99.90;;;;;;4183841;28;20221;-90
2023/01/03 00:09:33;;;;;;;14.63;5.03;;;6.80;99.90;;;;;;4184808;28;20713;-95
2023/01/03 00:13:54;;;;;;;18.25;5.10;;;6.40;99.90;;;;;;4200930;28;20170;-91
2023/01/03 00:15:55;;;;;;;14.35;5.03;;;6.40;99.90;;;;;;4170247;28;20210;-95
2023/01/03 00:17:56;;;;;;;11.05;4.85;;;6.40;99.90;;;;;;4186403;28;20213;-90
2023/01/03 00:19:56;;;;;;;16.45;5.55;;;6.40;99.90;;;;;;4184226;28;20214;-90
2023/01/03 00:21:57;;;;;;;15.43;5.63;;;6.50;99.90;;;;;;4200518;28;20198;-90
2023/01/03 00:23:58;;;;;;;17.00;5.63;;;6.60;99.90;;;;;;4184861;28;20175;-92
2023/01/03 00:26:08;;;;;;;16.20;5.25;;;6.70;99.90;;;;;;4184686;28;20298;-90
2023/01/03 00:28:09;;;;;;;13.13;5.55;;;6.70;99.90;;;;;;4184955;28;20178;-91
2023/01/03 00:30:10;;;;;;;17.70;5.90;;;6.80;99.90;;;;;;4184816;28;20174;-94
2023/01/03 00:32:11;;;;;;;12.88;5.57;;;6.80;99.90;;;;;;4200978;28;20178;-91
2023/01/03 00:34:12;;;;;;;15.55;5.72;;;6.90;99.90;;;;;;4185204;28;20233;-94
2023/01/03 00:36:13;;;;;;;23.33;5.82;;;6.80;99.90;;;;;;4184136;28;20179;-93
2023/01/03 00:38:14;;;;;;;9.85;5.05;;;6.80;99.90;;;;;;4185142;28;20214;-91
2023/01/03 00:40:14;;;;;;;15.85;5.97;;;6.80;99.90;;;;;;4185193;28;20164;-91
2023/01/03 00:42:15;;;;;;;12.85;5.70;;;6.80;99.90;;;;;;4184588;28;20172;-95
2023/01/03 00:44:16;;;;;;;16.52;5.90;;;6.80;99.90;;;;;;4183967;28;20172;-95
2023/01/03 00:46:19;;;;;;;17.25;5.93;;;6.80;99.90;;;;;;4184799;28;20196;-91
2023/01/03 00:48:20;;;;;;;18.70;6.43;;;6.80;99.90;;;;;;4185443;28;20179;-94
2023/01/03 00:50:21;;;;;;;10.15;5.75;;;6.80;99.90;;;;;;4183555;28;20604;-94
2023/01/03 00:52:21;;;;;;;16.35;6.65;;;6.80;99.90;;;;;;4185069;28;20180;-91
2023/01/03 00:54:23;;;;;;;15.90;6.20;;;6.80;99.90;;;;;;4202102;28;20232;-93
2023/01/03 00:56:26;;;;;;;13.23;6.28;;;6.80;99.90;;;;;;4201595;28;20205;-91
2023/01/03 00:58:30;;;;;;;16.33;6.70;;;6.80;99.90;;;;;;4184266;28;20273;-94
2023/01/03 01:00:31;;;;;;;14.75;5.68;;;6.80;99.90;;;;;;4182537;28;20260;-90
2023/01/03 01:02:31;;;;;;;17.15;6.55;;;6.60;99.90;;;;;;4200598;28;20182;-95
2023/01/03 01:04:32;;;;;;;22.47;6.70;;;6.40;99.90;;;;;;4186396;28;20171;-91
2023/01/03 01:06:40;;;;;;;11.27;6.32;;;6.40;99.90;;;;;;4185075;28;20204;-95
2023/01/03 01:08:42;;;;;;;16.98;5.75;;;6.40;99.90;;;;;;4183579;28;20241;-95
2023/01/03 01:11:00;;;;;;;13.45;6.00;;;6.30;99.90;;;;;;4188136;28;20168;-91
2023/01/03 01:13:01;;;;;;;15.82;5.78;;;6.30;99.90;;;;;;4188287;28;20268;-95
2023/01/03 01:15:02;;;;;;;11.57;5.63;;;6.30;99.90;;;;;;4187164;28;20528;-90
2023/01/03 01:17:08;;;;;;;14.80;6.72;;;6.30;99.90;;;;;;4203846;28;20317;-94
2023/01/03 01:19:09;;;;;;;16.80;6.20;;;6.20;99.90;;;;;;4187788;28;20172;-90
2023/01/03 01:21:16;;;;;;;17.15;6.60;;;6.20;99.90;;;;;;4185979;28;20168;-92
2023/01/03 01:23:17;;;;;;;14.55;6.25;;;6.10;99.90;;;;;;4203269;28;20729;-95
2023/01/03 01:25:18;;;;;;;13.45;6.45;;;6.10;99.90;;;;;;4205848;28;20163;-94
2023/01/03 01:27:18;;;;;;;17.25;6.40;;;6.10;99.90;;;;;;4188299;28;20200;-91
2023/01/03 01:29:20;;;;;;;20.15;6.28;;;6.10;99.90;;;;;;4186511;28;20182;-94
2023/01/03 01:31:25;;;;;;;14.73;6.03;;;6.10;99.90;;;;;;4203853;28;20209;-92
2023/01/03 01:33:26;;;;;;;17.70;6.72;;;6.10;99.90;;;;;;4202972;28;20242;-94
2023/01/03 01:35:27;;;;;;;13.23;6.93;;;6.10;99.90;;;;;;4202757;28;20191;-90
2023/01/03 01:37:28;;;;;;;14.48;5.90;;;6.10;99.90;;;;;;4203852;28;20214;-94
2023/01/03 01:39:30;;;;;;;13.73;6.33;;;6.20;99.90;;;;;;4203091;28;20217;-92
2023/01/03 01:46:30;;;;;;;19.85;7.60;;;6.40;99.90;;;;;;4203872;28;20233;-91
2023/01/03 01:48:31;;;;;;;19.00;6.80;;;6.30;99.90;;;;;;4220785;28;20194;-95
2023/01/03 01:50:41;;;;;;;12.60;7.13;;;6.20;99.90;;;;;;4187725;28;20178;-95
2023/01/03 01:52:47;;;;;;;16.27;6.83;;;6.10;99.90;;;;;;4185671;28;20171;-90
2023/01/03 01:54:50;;;;;;;14.47;7.23;;;6.00;99.90;;;;;;4186609;28;20176;-92
2023/01/03 01:56:52;;;;;;;14.73;6.88;;;6.10;99.90;;;;;;4186349;28;20195;-91
2023/01/03 01:58:54;;;;;;;17.73;6.70;;;6.10;99.90;;;;;;4186504;28;20245;-91
2023/01/03 02:00:55;;;;;;;12.00;6.07;;;6.00;99.90;;;;;;4185294;28;20168;-90
2023/01/03 02:02:55;;;;;;;12.73;6.50;;;5.90;99.90;;;;;;4185964;28;20544;-92
2023/01/03 02:04:58;;;;;;;21.23;7.50;;;5.90;99.90;;;;;;4202029;28;20269;-91
2023/01/03 02:07:00;;;;;;;13.82;6.50;;;6.00;99.90;;;;;;4186913;28;20195;-95
2023/01/03 02:09:01;;;;;;;17.80;6.70;;;6.00;99.90;;;;;;4205568;28;20183;-95
2023/01/03 02:11:23;;;;;;;16.33;7.17;;;6.10;99.90;;;;;;4220567;28;20173;-91
2023/01/03 02:13:24;;;;;;;21.17;6.95;;;6.00;99.90;;;;;;4202733;28;20182;-90
2023/01/03 02:15:24;;;;;;;12.35;6.63;;;6.00;99.90;;;;;;4186093;28;20183;-90
2023/01/03 02:17:31;;;;;;;16.58;7.13;;;6.10;99.90;;;;;;4203524;28;20742;-94
2023/01/03 02:19:53;;;;;;;16.33;6.95;;;6.30;99.90;;;;;;4186213;28;20215;-90
2023/01/03 02:22:13;;;;;;;17.15;6.90;;;6.50;99.90;;;;;;4186532;28;20191;-89
2023/01/03 02:24:55;;;;;;;14.75;6.40;;;6.50;99.90;;;;;;4188659;28;20726;-93
2023/01/03 02:27:21;;;;;;;14.93;7.35;;;6.30;99.90;;;;;;4187322;28;20211;-95
2023/01/03 02:29:33;;;;;;;19.20;6.80;;;6.30;99.90;;;;;;4187487;28;20270;-93
2023/01/03 02:31:42;;;;;;;13.98;7.03;;;6.20;99.90;;;;;;4186655;28;20201;-94
2023/01/03 02:34:11;;;;;;;13.63;6.37;;;6.20;99.90;;;;;;4204702;28;20178;-93
2023/01/03 02:36:28;;;;;;;10.60;6.20;;;6.20;99.90;;;;;;4187480;28;20204;-94
2023/01/03 02:38:49;;;;;;;17.67;6.63;;;6.30;99.90;;;;;;4203852;28;20292;-94
2023/01/03 02:41:26;;;;;;;17.25;5.85;;;6.30;99.90;;;;;;4185597;28;20176;-93
2023/01/03 02:43:34;;;;;;;11.15;5.88;;;6.10;99.90;;;;;;4177779;28;20716;-94
2023/01/03 02:45:54;;;;;;;12.65;5.47;;;6.20;99.90;;;;;;4187586;28;20167;-95
2023/01/03 02:48:10;;;;;;;11.03;5.37;;;6.00;99.90;;;;;;4187488;28;20690;-95
2023/01/03 02:50:13;;;;;;;10.60;5.68;;;6.00;99.90;;;;;;4203566;28;20174;-92
2023/01/03 02:52:18;;;;;;;11.55;5.85;;;5.90;99.90;;;;;;4187170;28;20174;-93
2023/01/03 02:54:32;;;;;;;10.53;5.83;;;6.00;99.90;;;;;;4203684;28;20171;-95
2023/01/03 02:56:51;;;;;;;11.70;6.50;;;6.00;99.90;;;;;;4202324;28;20246;-94
2023/01/03 02:59:00;;;;;;;11.53;5.90;;;5.90;99.90;;;;;;4203748;28;20659;-95
2023/01/03 03:01:03;;;;;;;13.47;6.30;;;5.90;99.90;;;;;;4203344;28;20166;-94
2023/01/03 03:03:10;;;;;;;12.32;5.68;;;5.80;99.90;;;;;;4204955;28;20573;-91
2023/01/03 03:05:18;;;;;;;11.73;5.47;;;5.90;99.90;;;;;;4185418;28;20172;-91
2023/01/03 03:07:26;;;;;;;12.80;6.17;;;5.90;99.90;;;;;;4202452;28;20202;-92
2023/01/03 03:09:28;;;;;;;12.57;6.10;;;6.00;99.90;;;;;;4185398;28;20164;-90
2023/01/03 03:14:00;;;;;;;9.97;5.43;;;5.90;99.90;;;;;;4202048;28;20234;-91
2023/01/03 03:16:10;;;;;;;12.83;5.60;;;5.80;99.90;;;;;;4184840;28;20193;-95
2023/01/03 03:18:33;;;;;;;11.77;5.67;;;5.90;99.90;;;;;;4201502;28;20198;-91
2023/01/03 03:25:35;;;;;;;11.87;5.63;;;6.20;99.90;;;;;;4203309;28;20201;-92
2023/01/03 03:30:00;;;;;;;15.50;6.33;;;6.50;99.90;;;;;;4200939;28;20182;-92
2023/01/03 03:32:04;;;;;;;13.33;5.97;;;6.60;99.90;;;;;;4219166;28;20234;-94
2023/01/03 03:34:21;;;;;;;20.17;5.47;;;6.80;99.90;;;;;;4205329;28;20178;-91
2023/01/03 03:36:34;;;;;;;14.63;5.73;;;6.90;99.90;;;;;;4186637;28;20239;-94
2023/01/03 03:38:45;;;;;;;9.07;5.40;;;6.90;99.90;;;;;;4203900;28;20219;-91
2023/01/03 03:46:01;;;;;;;14.03;5.07;;;6.80;99.90;;;;;;4203170;28;20214;-91
2023/01/03 03:48:21;;;;;;;9.77;4.80;;;6.70;99.90;;;;;;4187820;28;20180;-95
2023/01/03 03:50:30;;;;;;;12.45;5.20;;;6.70;99.90;;;;;;4202700;28;20202;-91
2023/01/03 03:52:34;;;;;;;10.40;5.33;;;6.70;99.90;;;;;;4200978;28;20229;-90
2023/01/03 03:54:37;;;;;;;10.15;5.82;;;6.60;99.90;;;;;;4204486;28;20216;-91
2023/01/03 03:56:40;;;;;;;12.97;5.83;;;6.70;99.90;;;;;;4202711;28;20222;-91
2023/01/03 03:58:48;;;;;;;14.23;6.28;;;6.80;99.90;;;;;;4201479;28;20217;-90
2023/01/03 04:00:51;;;;;;;10.40;5.55;;;6.70;99.90;;;;;;4202849;28;20688;-94
2023/01/03 04:02:54;;;;;;;13.35;5.70;;;6.80;99.90;;;;;;4204893;28;20190;-90
2023/01/03 04:04:59;;;;;;;10.20;6.00;;;6.80;99.90;;;;;;4185541;28;20178;-90
2023/01/03 04:07:01;;;;;;;9.43;5.47;;;6.60;99.90;;;;;;4186334;28;20199;-91
2023/01/03 04:09:02;;;;;;;12.48;5.55;;;6.50;99.90;;;;;;4169599;28;20234;-94
2023/01/03 04:11:06;;;;;;;14.70;6.07;;;6.40;99.90;;;;;;4186564;28;20301;-94
2023/01/03 04:13:06;;;;;;;11.68;5.40;;;6.60;99.90;;;;;;4204221;28;20190;-90
2023/01/03 04:15:08;;;;;;;16.67;5.40;;;6.60;99.90;;;;;;4186511;28;20250;-95
2023/01/03 04:17:09;;;;;;;11.75;5.57;;;6.60;99.90;;;;;;4187772;28;20187;-95
2023/01/03 04:19:10;;;;;;;11.90;5.17;;;6.60;99.90;;;;;;4184386;28;20179;-94
2023/01/03 04:21:11;;;;;;;11.63;5.50;;;6.70;99.90;;;;;;4205387;28;20177;-95
2023/01/03 04:23:11;;;;;;;10.07;5.55;;;6.80;99.90;;;;;;4187859;28;20180;-91
2023/01/03 04:25:12;;;;;;;13.47;5.63;;;6.90;99.90;;;;;;4204163;28;20757;-90
2023/01/03 04:27:13;;;;;;;12.97;6.00;;;7.00;99.90;;;;;;4185733;28;20218;-91
2023/01/03 04:29:14;;;;;;;11.27;6.00;;;7.00;99.90;;;;;;4203780;28;20173;-95
2023/01/03 04:31:15;;;;;;;8.85;5.57;;;7.10;99.90;;;;;;4201666;28;20162;-92
2023/01/03 04:33:16;;;;;;;13.15;6.38;;;7.20;99.90;;;;;;4189535;28;20175;-91
2023/01/03 04:35:17;;;;;;;11.10;5.77;;;7.20;99.90;;;;;;4186471;28;20171;-91
2023/01/03 04:37:17;;;;;;;11.73;6.40;;;7.20;99.90;;;;;;4205520;28;20203;-92
2023/01/03 04:39:18;;;;;;;19.77;6.50;;;7.30;99.90;;;;;;4202591;28;20171;-90
2023/01/03 04:41:19;;;;;;;14.75;6.32;;;7.30;99.90;;;;;;4207584;28;20175;-96
2023/01/03 04:45:41;;;;;;;16.30;6.60;;;7.20;99.90;;;;;;4211038;28;20178;-89
2023/01/03 04:47:42;;;;;;;14.57;7.33;;;7.10;99.90;;;;;;4191302;28;20167;-93
2023/01/03 04:49:45;;;;;;;15.90;8.07;;;7.20;99.90;;;;;;4191702;28;20555;-90
2023/01/03 04:51:47;;;;;;;16.27;7.93;;;7.30;99.90;;;;;;4191829;28;20175;-90
2023/01/03 04:53:51;;;;;;;17.43;7.80;;;7.30;99.90;;;;;;4210064;28;20167;-91
2023/01/03 04:55:59;;;;;;;18.77;9.02;;;7.30;99.90;;;;;;4212278;28;20162;-91
2023/01/03 04:58:00;;;;;;;20.70;9.40;;;7.30;99.90;;;;;;4188340;28;20250;-90
2023/01/03 05:00:01;;;;;;;21.20;8.47;;;7.40;99.90;;;;;;4191481;28;20556;-94
2023/01/03 05:02:02;;;;;;;21.73;10.02;;;7.40;99.90;;;;;;4189105;28;20175;-95
2023/01/03 05:04:08;;;;;;;21.92;9.00;;;7.30;99.90;;;;;;4193335;28;20270;-94
2023/01/03 05:06:12;;;;;;;20.75;10.07;;;7.20;99.90;;;;;;4217153;28;20224;-95
2023/01/03 05:08:13;;;;;;;19.37;9.97;;;7.20;99.90;;;;;;4203379;28;20174;-90
2023/01/03 05:10:13;;;;;;;21.30;9.85;;;7.30;99.90;;;;;;4189980;28;20612;-90
2023/01/03 05:12:15;;;;;;;20.17;10.47;;;7.30;99.90;;;;;;4189859;28;20175;-89
2023/01/03 05:14:23;;;;;;;21.53;11.23;;;7.30;99.90;;;;;;4209933;28;20245;-95
2023/01/03 05:16:28;;;;;;;22.80;10.90;;;7.10;99.90;;;;;;4177838;28;20188;-90
2023/01/03 05:18:33;;;;;;;25.55;11.30;;;7.00;99.90;;;;;;4189150;28;20603;-92
2023/01/03 05:27:34;;;;;;;27.60;12.43;;;7.30;99.90;;;;;;4208725;28;20235;-93
2023/01/03 05:29:36;;;;;;;25.13;12.20;;;7.40;99.90;;;;;;4188451;28;20191;-93
2023/01/03 05:31:41;;;;;;;26.27;12.90;;;7.40;99.90;;;;;;4188040;28;20274;-91
2023/01/03 05:33:42;;;;;;;22.83;11.90;;;7.40;99.90;;;;;;4190943;28;20172;-95
2023/01/03 05:35:46;;;;;;;25.50;12.80;;;7.20;99.90;;;;;;4186698;28;20546;-95
2023/01/03 05:37:47;;;;;;;26.67;12.50;;;7.20;99.90;;;;;;4188509;28;20238;-94
2023/01/03 05:39:48;;;;;;;27.88;13.00;;;7.20;99.90;;;;;;4187778;28;20639;-93
2023/01/03 05:42:01;;;;;;;25.27;11.80;;;7.10;99.90;;;;;;4188451;28;20175;-94
2023/01/03 05:44:02;;;;;;;24.38;12.20;;;7.20;99.90;;;;;;4188787;28;20174;-90
2023/01/03 05:46:03;;;;;;;27.33;12.30;;;7.10;99.90;;;;;;4187028;28;20195;-92
2023/01/03 05:48:05;;;;;;;25.08;12.50;;;7.10;99.90;;;;;;4188135;28;20586;-94
2023/01/03 05:50:06;;;;;;;22.88;12.50;;;7.30;99.90;;;;;;4187536;28;20167;-94
2023/01/03 05:52:07;;;;;;;26.55;12.65;;;7.20;99.90;;;;;;4187902;28;20176;-92
2023/01/03 05:54:16;;;;;;;22.60;12.15;;;7.20;99.90;;;;;;4186213;28;20214;-92
2023/01/03 05:56:17;;;;;;;21.08;11.02;;;7.20;99.90;;;;;;4188569;28;20254;-92
2023/01/03 05:58:18;;;;;;;19.90;11.55;;;7.20;99.90;;;;;;4190231;28;20211;-91
2023/01/03 06:00:19;;;;;;;24.63;11.43;;;7.30;99.90;;;;;;4171647;28;20187;-94
2023/01/03 06:02:20;;;;;;;21.50;10.77;;;7.50;99.90;;;;;;4170647;28;20188;-93
2023/01/03 06:04:23;;;;;;;21.38;11.38;;;7.60;99.90;;;;;;4190822;28;20151;-95
2023/01/03 06:06:26;;;;;;;22.42;11.48;;;7.50;99.90;;;;;;4188147;28;20203;-91
2023/01/03 06:08:28;;;;;;;19.10;10.85;;;7.60;99.90;;;;;;4187559;28;20187;-94
2023/01/03 06:10:29;;;;;;;23.70;10.75;;;7.80;99.90;;;;;;4206121;28;20174;-90
2023/01/03 06:12:30;;;;;;;21.70;10.75;;;7.80;99.90;;;;;;4204743;28;20214;-95
2023/01/03 06:14:34;;;;;;;22.97;11.40;;;7.50;99.90;;;;;;4188580;28;20171;-93
2023/01/03 06:18:57;;;;;;;23.70;10.75;;;7.30;99.90;;;;;;4202949;28;20218;-94
2023/01/03 06:20:58;;;;;;;18.52;9.75;;;7.40;99.90;;;;;;4203605;28;20175;-92
2023/01/03 06:22:59;;;;;;;23.80;10.35;;;7.40;99.90;;;;;;4207173;28;20618;-92
2023/01/03 06:25:01;;;;;;;17.97;9.67;;;7.30;99.90;;;;;;4188254;28;20163;-93
2023/01/03 06:27:02;;;;;;;20.73;9.80;;;7.30;99.90;;;;;;4220964;28;20258;-94
2023/01/03 06:29:04;;;;;;;19.15;10.10;;;7.50;99.90;;;;;;4190117;28;20172;-91
2023/01/03 06:31:05;;;;;;;20.30;10.45;;;7.70;99.90;;;;;;4190120;28;20180;-93
2023/01/03 06:33:06;;;;;;;16.10;9.10;;;7.70;99.90;;;;;;4175290;28;20176;-91
2023/01/03 06:35:07;;;;;;;19.97;9.17;;;7.50;99.90;;;;;;4188807;28;20182;-90
2023/01/03 06:37:08;;;;;;;18.77;9.98;;;7.60;99.90;;;;;;4187403;28;20192;-94
2023/01/03 06:39:10;;;;;;;16.10;9.15;;;7.70;99.90;;;;;;4186995;28;20176;-91
2023/01/03 06:41:15;;;;;;;24.02;9.95;;;7.70;99.90;;;;;;4189892;28;20179;-92
2023/01/03 06:43:16;;;;;;;19.92;9.13;;;7.50;99.90;;;;;;4188308;28;20690;-91
2023/01/03 06:54:39;;;;;;;15.77;7.65;;;7.70;99.90;;;;;;4206818;28;20194;-91
2023/01/03 06:56:41;;;;;;;17.15;8.07;;;7.60;99.90;;;;;;4186794;28;20282;-95
2023/01/03 06:58:41;;;;;;;13.05;7.75;;;7.60;99.90;;;;;;4187389;28;20973;-94
2023/01/03 07:00:43;;;;;;;20.45;8.70;;;7.50;99.90;;;;;;4189251;28;20164;-91
2023/01/03 07:02:44;;;;;;;15.15;8.35;;;7.60;99.90;;;;;;4187213;28;20202;-94
2023/01/03 07:04:45;;;;;;;16.13;7.93;;;7.50;99.90;;;;;;4188753;28;20199;-92
2023/01/03 07:06:46;;;;;;;15.00;7.28;;;7.70;99.90;;;;;;4186700;28;20203;-95
2023/01/03 07:08:47;;;;;;;20.10;8.48;;;7.70;99.90;;;;;;4186342;28;20266;-91
2023/01/03 07:10:47;;;;;;;20.05;8.63;;;7.60;99.90;;;;;;4186819;28;20168;-92
2023/01/03 07:15:09;;;;;;;13.32;7.78;;;7.60;99.90;;;;;;4204265;28;20177;-94
2023/01/03 07:17:10;;;;;;;19.80;8.60;;;7.80;99.90;;;;;;4206691;28;20214;-94
2023/01/03 07:19:14;;;;;;;15.02;8.25;;;7.80;99.90;;;;;;4188755;28;20179;-95
2023/01/03 07:21:15;;;;;;;24.33;8.50;;;7.90;99.90;;;;;;4206761;28;20186;-91
2023/01/03 07:23:18;;;;;;;17.50;8.52;;;8.00;99.90;;;;;;4204149;28;20171;-93
2023/01/03 07:25:19;;;;;;;17.85;8.13;;;7.80;99.90;;;;;;4188412;28;20207;-94
2023/01/03 07:27:20;;;;;;;17.63;8.40;;;7.80;99.90;;;;;;4187492;28;20207;-94
2023/01/03 07:29:21;;;;;;;17.30;8.18;;;7.90;99.90;;;;;;4202740;28;20209;-90
2023/01/03 07:31:25;;;;;;;22.90;8.35;;;8.00;99.90;;;;;;4204988;28;20642;-95
2023/01/03 07:33:25;;;;;;;19.45;8.50;;;8.00;99.90;;;;;;4188154;28;20175;-92
2023/01/03 07:35:26;;;;;;;16.70;8.18;;;7.90;99.90;;;;;;4201676;28;20619;-91
2023/01/03 07:37:27;;;;;;;20.52;8.45;;;7.90;99.90;;;;;;4185993;28;20253;-90
2023/01/03 07:39:28;;;;;;;18.95;8.52;;;7.80;99.90;;;;;;4203179;28;20174;-95
2023/01/03 07:43:49;;;;;;;16.55;7.75;;;7.90;99.90;;;;;;4204676;28;20536;-95
2023/01/03 07:45:50;;;;;;;16.77;9.40;;;7.90;99.90;;;;;;4201277;28;20328;-92
2023/01/03 07:47:51;;;;;;;16.40;8.85;;;8.10;99.90;;;;;;4187629;28;20259;-94
2023/01/03 07:49:52;;;;;;;19.53;8.67;;;8.00;99.90;;;;;;4184278;28;20692;-91
2023/01/03 07:51:53;;;;;;;19.92;8.27;;;8.00;99.90;;;;;;4186182;28;20218;-94
2023/01/03 07:53:54;;;;;;;15.05;7.93;;;8.00;99.90;;;;;;4184699;28;20258;-91
2023/01/03 07:56:02;;;;;;;21.17;8.52;;;8.00;99.90;;;;;;4185934;28;20226;-90
2023/01/03 07:58:03;;;;;;;21.98;8.82;;;8.00;99.90;;;;;;4186146;28;20211;-90
2023/01/03 08:00:04;;;;;;;18.88;9.35;;;8.00;99.90;;;;;;4203138;28;20205;-91
2023/01/03 08:02:14;;;;;;;18.00;9.25;;;8.00;99.90;;;;;;4186316;28;20225;-91
2023/01/03 08:04:15;;;;;;;25.55;9.88;;;8.10;99.90;;;;;;4201566;28;20170;-95
2023/01/03 08:06:21;;;;;;;22.42;9.93;;;8.10;99.90;;;;;;4186988;28;20203;-95
2023/01/03 08:08:25;;;;;;;26.13;11.05;;;8.20;99.90;;;;;;4201776;28;20310;-90
2023/01/03 08:15:05;;;;;;;20.00;9.75;;;8.10;99.90;;;;;;4202699;28;20175;-92
2023/01/03 08:17:06;;;;;;;20.58;10.85;;;8.10;99.90;;;;;;4203716;28;20194;-92
2023/01/03 08:19:07;;;;;;;26.45;11.82;;;8.20;99.90;;;;;;4183153;28;20180;-90
2023/01/03 08:21:10;;;;;;;23.55;11.77;;;8.20;99.90;;;;;;4185739;28;20171;-91
2023/01/03 08:23:10;;;;;;;21.35;12.25;;;8.30;99.90;;;;;;4183702;28;20205;-96
2023/01/03 08:25:11;;;;;;;24.83;11.90;;;8.30;99.90;;;;;;4184069;28;20643;-94
2023/01/03 08:27:12;;;;;;;23.45;11.02;;;8.20;99.90;;;;;;4203151;28;20202;-93
2023/01/03 08:29:15;;;;;;;25.00;11.05;;;8.30;99.90;;;;;;4202656;28;20259;-94
2023/01/03 08:31:21;;;;;;;19.60;10.10;;;8.40;99.90;;;;;;4183521;28;20175;-90
2023/01/03 08:33:22;;;;;;;22.52;10.55;;;8.40;99.90;;;;;;4182775;28;20654;-96
2023/01/03 08:35:25;;;;;;;19.73;10.38;;;8.30;99.90;;;;;;4186230;28;20183;-93
2023/01/03 08:37:27;;;;;;;21.90;10.05;;;8.30;99.90;;;;;;4182928;28;20235;-94
2023/01/03 08:39:36;;;;;;;23.42;12.40;;;8.40;99.90;;;;;;4184573;28;20168;-93
2023/01/03 08:41:47;;;;;;;24.70;15.25;;;8.40;99.90;;;;;;4182924;28;20611;-90
2023/01/03 08:43:48;;;;;;;22.63;11.52;;;8.40;99.90;;;;;;4198793;28;20186;-91
2023/01/03 08:45:49;;;;;;;16.85;8.73;;;8.50;99.90;;;;;;4181358;28;20191;-90
2023/01/03 08:47:51;;;;;;;12.93;4.70;;;8.50;99.90;;;;;;4184093;28;20596;-94
2023/01/03 08:49:54;;;;;;;12.60;6.22;;;8.40;99.90;;;;;;4199423;28;20243;-90
2023/01/03 08:51:55;;;;;;;11.48;5.80;;;8.40;99.90;;;;;;4187590;28;20175;-90
2023/01/03 08:53:56;;;;;;;11.68;5.45;;;8.40;99.90;;;;;;4166568;28;20259;-90
2023/01/03 08:55:56;;;;;;;17.02;5.80;;;8.30;99.90;;;;;;4185967;28;20278;-91
2023/01/03 08:57:58;;;;;;;9.90;4.95;;;8.20;99.90;;;;;;4186219;28;20187;-95
2023/01/03 09:00:06;;;;;;;14.02;6.38;;;8.20;99.90;;;;;;4183415;28;20202;-91
2023/01/03 09:02:08;;;;;;;12.50;5.78;;;8.20;99.90;;;;;;4201421;28;20636;-91
2023/01/03 09:04:08;;;;;;;15.32;5.97;;;8.00;99.90;;;;;;4184364;28;20247;-94
2023/01/03 09:06:09;;;;;;;12.93;6.00;;;8.00;99.90;;;;;;4183020;28;20199;-90
2023/01/03 09:08:10;;;;;;;14.98;6.53;;;8.10;99.90;;;;;;4184768;28;20556;-95
2023/01/03 09:10:11;;;;;;;13.52;5.82;;;8.10;99.90;;;;;;4206769;28;20161;-91
2023/01/03 09:12:12;;;;;;;13.40;5.78;;;8.10;99.90;;;;;;4188137;28;20172;-95
2023/01/03 09:14:13;;;;;;;16.52;5.50;;;8.00;99.90;;;;;;4184414;28;20617;-95
2023/01/03 09:16:15;;;;;;;14.80;5.25;;;8.20;99.90;;;;;;4184048;28;20278;-90
2023/01/03 09:18:16;;;;;;;15.17;5.13;;;8.20;99.90;;;;;;4188185;28;20246;-95
2023/01/03 09:20:17;;;;;;;9.30;5.18;;;8.30;99.90;;;;;;4199104;28;20179;-90
2023/01/03 09:22:18;;;;;;;12.57;5.30;;;8.20;99.90;;;;;;4185629;28;20174;-93
2023/01/03 09:24:21;;;;;;;17.50;5.45;;;8.10;99.90;;;;;;4186897;28;20262;-94
2023/01/03 09:26:24;;;;;;;12.98;5.10;;;8.00;99.90;;;;;;4202551;28;20691;-90
2023/01/03 09:28:32;;;;;;;11.18;5.53;;;8.20;99.90;;;;;;4202839;28;20174;-90
2023/01/03 09:30:39;;;;;;;17.55;5.35;;;8.30;99.90;;;;;;4206745;28;20193;-93
2023/01/03 09:32:40;;;;;;;21.05;6.05;;;8.20;99.90;;;;;;4205982;28;20177;-94
2023/01/03 09:34:45;;;;;;;14.85;5.03;;;8.20;99.90;;;;;;4194781;28;20521;-96
2023/01/03 09:36:46;;;;;;;17.42;7.00;;;8.30;99.90;;;;;;4205555;28;20187;-91
2023/01/03 09:38:48;;;;;;;16.05;6.55;;;8.40;99.90;;;;;;4192369;28;20354;-90
2023/01/03 09:41:01;;;;;;;14.90;6.20;;;8.30;99.90;;;;;;4188603;28;20167;-89
2023/01/03 09:43:13;;;;;;;13.15;5.20;;;8.30;99.90;;;;;;4207074;28;20185;-90
2023/01/03 09:45:26;;;;;;;15.38;6.28;;;8.40;99.90;;;;;;4204295;28;20665;-92
2023/01/03 09:47:31;;;;;;;15.18;6.68;;;8.50;99.90;;;;;;4208684;28;20186;-95
2023/01/03 09:49:37;;;;;;;13.82;5.78;;;8.50;99.90;;;;;;4207151;28;20578;-92
2023/01/03 10:03:58;;;;;;;15.13;5.65;;;8.70;99.90;;;;;;4205857;28;20240;-91
2023/01/03 10:06:18;;;;;;;12.93;4.75;;;8.80;99.90;;;;;;4207279;28;20191;-91
2023/01/03 10:08:46;;;;;;;10.05;4.68;;;8.80;99.90;;;;;;4205201;28;20174;-90
2023/01/03 10:11:12;;;;;;;12.93;4.95;;;8.80;99.90;;;;;;4203710;28;20167;-95
2023/01/03 10:14:03;;;;;;;16.52;5.00;;;8.80;99.90;;;;;;4203676;28;20209;-91
2023/01/03 10:16:26;;;;;;;10.25;4.13;;;8.90;99.90;;;;;;4204608;28;20196;-91
2023/01/03 10:18:47;;;;;;;11.05;4.60;;;8.80;99.90;;;;;;4186524;28;20211;-90
2023/01/03 10:21:04;;;;;;;13.30;4.15;;;8.90;99.90;;;;;;4189197;28;20730;-90
2023/01/03 10:23:07;;;;;;;12.85;4.57;;;9.00;99.90;;;;;;4205359;28;20221;-94
2023/01/03 10:25:20;;;;;;;7.28;3.42;;;8.90;99.90;;;;;;4205177;28;20658;-92
2023/01/03 10:27:26;;;;;;;7.95;3.95;;;8.80;99.90;;;;;;4189477;28;20266;-95
2023/01/03 10:29:32;;;;;;;9.75;3.85;;;8.90;99.90;;;;;;4194090;28;20211;-91
2023/01/03 10:31:49;;;;;;;13.43;3.42;;;8.90;99.90;;;;;;4188170;28;20167;-95
2023/01/03 10:33:52;;;;;;;9.50;3.05;;;8.80;99.90;;;;;;4190781;28;20178;-94
2023/01/03 10:35:55;;;;;;;7.65;2.72;;;8.90;99.90;;;;;;4193736;28;20180;-92
2023/01/03 10:37:57;;;;;;;9.35;3.22;;;9.00;99.90;;;;;;4208599;28;20544;-92
2023/01/03 10:40:33;;;;;;;12.88;3.47;;;9.00;99.90;;;;;;4209031;28;20174;-91
2023/01/03 10:42:38;;;;;;;10.23;3.05;;;9.20;99.90;;;;;;4203750;28;20179;-89
2023/01/03 10:44:58;;;;;;;9.75;3.25;;;9.20;99.90;;;;;;4188971;28;20167;-94
2023/01/03 10:47:08;;;;;;;11.50;2.78;;;9.20;99.90;;;;;;4210589;28;20170;-91
2023/01/03 10:49:23;;;;;;;10.90;3.13;;;9.40;99.90;;;;;;4208143;28;20179;-94
2023/01/03 10:51:51;;;;;;;8.40;2.75;;;9.40;99.90;;;;;;4190917;28;20183;-92
2023/01/03 10:53:56;;;;;;;12.85;2.47;;;9.40;99.90;;;;;;4204207;28;20186;-89
2023/01/03 10:56:01;;;;;;;8.18;2.58;;;9.50;99.90;;;;;;4206866;28;20179;-93
2023/01/03 10:58:12;;;;;;;11.02;2.85;;;9.50;99.90;;;;;;4205982;28;20217;-90
2023/01/03 11:00:35;;;;;;;7.55;2.67;;;9.40;99.90;;;;;;4206815;28;20178;-93
2023/01/03 11:02:46;;;;;;;10.88;2.65;;;9.30;99.90;;;;;;4206976;28;20242;-94
2023/01/03 11:04:47;;;;;;;9.05;2.60;;;9.40;99.90;;;;;;4190440;28;20206;-91
2023/01/03 11:06:58;;;;;;;10.07;2.60;;;9.60;99.90;;;;;;4206333;28;20194;-91
2023/01/03 11:09:11;;;;;;;6.90;2.50;;;9.40;99.90;;;;;;4202302;28;20246;-90
2023/01/03 11:11:31;;;;;;;11.10;3.05;;;9.50;99.90;;;;;;4205382;28;20190;-91
2023/01/03 11:13:40;;;;;;;13.88;2.88;;;9.40;99.90;;;;;;4206807;28;20174;-94
2023/01/03 11:15:42;;;;;;;11.15;2.80;;;9.30;99.90;;;;;;4205258;28;20163;-96
2023/01/03 11:18:19;;;;;;;11.05;2.50;;;9.40;99.90;;;;;;4186467;28;20199;-95
2023/01/03 11:20:31;;;;;;;15.55;3.15;;;9.20;99.90;;;;;;4194956;28;20189;-90
2023/01/03 11:22:43;;;;;;;14.75;3.20;;;9.30;99.90;;;;;;4186609;28;20175;-92
2023/01/03 11:25:05;;;;;;;11.25;2.95;;;9.30;99.90;;;;;;4203150;28;20563;-91
2023/01/03 11:27:28;;;;;;;7.80;2.47;;;9.60;99.90;;;;;;4209420;28;20603;-90
2023/01/03 11:30:13;;;;;;;13.10;2.60;;;9.50;99.90;;;;;;4190245;28;20175;-92
2023/01/03 11:32:32;;;;;;;9.50;2.75;;;9.40;99.90;;;;;;4190680;28;20187;-91
2023/01/03 11:34:33;;;;;;;8.48;2.45;;;9.40;99.90;;;;;;4187850;28;20168;-92
2023/01/03 11:37:08;;;;;;;9.65;2.92;;;9.40;99.90;;;;;;4204171;28;20202;-91
2023/01/03 11:39:26;;;;;;;7.88;2.55;;;9.30;99.90;;;;;;4190641;28;20274;-94
2023/01/03 11:41:51;;;;;;;11.18;3.00;;;9.40;99.90;;;;;;4191029;28;20175;-92
2023/01/03 11:44:21;;;;;;;9.77;2.78;;;9.30;99.90;;;;;;4186074;28;20179;-92
2023/01/03 11:47:01;;;;;;;9.55;2.45;;;9.60;99.90;;;;;;4202780;28;20203;-90
2023/01/03 11:49:27;;;;;;;11.05;2.67;;;9.60;99.90;;;;;;4202106;28;20175;-90
2023/01/03 11:51:34;;;;;;;11.63;2.85;;;9.50;99.90;;;;;;4186589;28;20651;-95
2023/01/03 11:53:56;;;;;;;10.35;2.83;;;9.50;99.90;;;;;;4209291;28;20183;-94
2023/01/03 11:56:19;;;;;;;10.63;2.95;;;9.50;99.90;;;;;;4211499;28;20258;-95
2023/01/03 11:58:45;;;;;;;10.70;2.58;;;9.70;99.90;;;;;;4194743;28;20310;-94
2023/01/03 12:00:52;;;;;;;10.73;2.38;;;9.60;99.90;;;;;;4197513;28;20191;-94